sensor_id;sensor_type;location;lat;lon;timestamp;temperature;humidity
21019;DHT22;10667;51.056;3.732;2023-05-19T00:01:13;13.00;99.90
21019;DHT22;10667;51.056;3.732;2023-05-19T00:03:57;13.00;99.90
21019;DHT22;10667;51.056;3.732;2023-05-19T00:06:28;12.90;99.90
21019;DHT22;10667;51.056;3.732;2023-05-19T00:09:00;12.90;99.90
21019;DHT22;10667;51.056;3.732;2023-05-19T00:11:27;12.90;99.90
21019;DHT22;10667;51.056;3.732;2023-05-19T00:13:54;13.00;99.90
21019;DHT22;10667;51.056;3.732;2023-05-19T00:16:22;12.90;99.90
21019;DHT22;10667;51.056;3.732;2023-05-19T00:18:48;12.90;99.90
21019;DHT22;10667;51.056;3.732;2023-05-19T00:21:14;12.90;99.90
21019;DHT22;10667;51.056;3.732;2023-05-19T00:23:40;12.90;99.90
21019;DHT22;10667;51.056;3.732;2023-05-19T00:26:06;12.90;99.90
21019;DHT22;10667;51.056;3.732;2023-05-19T00:28:31;12.80;99.90
21019;DHT22;10667;51.056;3.732;2023-05-19T00:30:57;12.80;99.90
21019;DHT22;10667;51.056;3.732;2023-05-19T00:33:23;12.70;99.90
21019;DHT22;10667;51.056;3.732;2023-05-19T00:35:49;12.70;99.90
21019;DHT22;10667;51.056;3.732;2023-05-19T00:38:15;12.70;99.90
21019;DHT22;10667;51.056;3.732;2023-05-19T00:40:41;12.80;99.90
21019;DHT22;10667;51.056;3.732;2023-05-19T00:43:06;12.80;99.90
21019;DHT22;10667;51.056;3.732;2023-05-19T00:45:33;12.70;99.90
21019;DHT22;10667;51.056;3.732;2023-05-19T00:47:59;12.60;99.90
21019;DHT22;10667;51.056;3.732;2023-05-19T00:50:26;12.60;99.90
21019;DHT22;10667;51.056;3.732;2023-05-19T00:52:56;12.50;99.90
21019;DHT22;10667;51.056;3.732;2023-05-19T00:55:26;12.40;99.90
21019;DHT22;10667;51.056;3.732;2023-05-19T00:57:53;12.40;99.90
21019;DHT22;10667;51.056;3.732;2023-05-19T01:00:20;12.30;99.90
21019;DHT22;10667;51.056;3.732;2023-05-19T01:02:46;12.40;99.90
21019;DHT22;10667;51.056;3.732;2023-05-19T01:05:12;12.50;99.90
21019;DHT22;10667;51.056;3.732;2023-05-19T01:07:38;12.50;99.90
21019;DHT22;10667;51.056;3.732;2023-05-19T01:10:04;12.50;99.90
21019;DHT22;10667;51.056;3.732;2023-05-19T01:12:30;12.50;99.90
21019;DHT22;10667;51.056;3.732;2023-05-19T01:14:58;12.50;99.90
21019;DHT22;10667;51.056;3.732;2023-05-19T01:17:40;12.30;99.90
21019;DHT22;10667;51.056;3.732;2023-05-19T01:20:23;12.30;99.90
21019;DHT22;10667;51.056;3.732;2023-05-19T01:23:11;12.30;99.90
21019;DHT22;10667;51.056;3.732;2023-05-19T01:31:35;12.20;99.90
21019;DHT22;10667;51.056;3.732;2023-05-19T01:34:02;12.20;99.90
21019;DHT22;10667;51.056;3.732;2023-05-19T01:36:31;12.10;99.90
21019;DHT22;10667;51.056;3.732;2023-05-19T01:38:58;12.10;99.90
21019;DHT22;10667;51.056;3.732;2023-05-19T01:41:25;12.10;99.90
21019;DHT22;10667;51.056;3.732;2023-05-19T01:43:52;12.10;99.90
21019;DHT22;10667;51.056;3.732;2023-05-19T01:46:18;12.10;99.90
21019;DHT22;10667;51.056;3.732;2023-05-19T01:48:46;12.20;99.90
21019;DHT22;10667;51.056;3.732;2023-05-19T01:51:12;12.20;99.90
21019;DHT22;10667;51.056;3.732;2023-05-19T01:53:38;12.10;99.90
21019;DHT22;10667;51.056;3.732;2023-05-19T01:56:04;12.20;99.90
21019;DHT22;10667;51.056;3.732;2023-05-19T01:58:47;12.20;99.90
21019;DHT22;10667;51.056;3.732;2023-05-19T02:01:35;12.30;99.90
21019;DHT22;10667;51.056;3.732;2023-05-19T02:07:04;12.30;99.90
21019;DHT22;10667;51.056;3.732;2023-05-19T02:09:59;12.30;99.90
21019;DHT22;10667;51.056;3.732;2023-05-19T02:12:33;12.20;99.90
21019;DHT22;10667;51.056;3.732;2023-05-19T02:17:28;12.10;99.90
21019;DHT22;10667;51.056;3.732;2023-05-19T02:19:57;12.10;99.90
21019;DHT22;10667;51.056;3.732;2023-05-19T02:22:23;12.20;99.90
21019;DHT22;10667;51.056;3.732;2023-05-19T02:24:49;12.20;99.90
21019;DHT22;10667;51.056;3.732;2023-05-19T02:27:16;12.30;99.90
21019;DHT22;10667;51.056;3.732;2023-05-19T02:29:42;12.30;99.90
21019;DHT22;10667;51.056;3.732;2023-05-19T02:32:07;12.30;99.90
21019;DHT22;10667;51.056;3.732;2023-05-19T02:34:33;12.20;99.90
21019;DHT22;10667;51.056;3.732;2023-05-19T02:36:59;12.30;99.90
21019;DHT22;10667;51.056;3.732;2023-05-19T02:39:25;12.30;99.90
21019;DHT22;10667;51.056;3.732;2023-05-19T02:41:51;12.30;99.90
21019;DHT22;10667;51.056;3.732;2023-05-19T02:44:16;12.40;99.90
21019;DHT22;10667;51.056;3.732;2023-05-19T02:46:42;12.30;99.90
21019;DHT22;10667;51.056;3.732;2023-05-19T02:49:08;12.00;99.90
21019;DHT22;10667;51.056;3.732;2023-05-19T02:51:33;12.00;99.90
21019;DHT22;10667;51.056;3.732;2023-05-19T02:53:59;11.90;99.90
21019;DHT22;10667;51.056;3.732;2023-05-19T02:56:25;11.90;99.90
21019;DHT22;10667;51.056;3.732;2023-05-19T02:58:52;11.80;99.90
21019;DHT22;10667;51.056;3.732;2023-05-19T03:01:18;11.80;99.90
21019;DHT22;10667;51.056;3.732;2023-05-19T03:03:45;11.70;99.90
21019;DHT22;10667;51.056;3.732;2023-05-19T03:06:11;11.70;99.90
21019;DHT22;10667;51.056;3.732;2023-05-19T03:08:37;11.60;99.90
21019;DHT22;10667;51.056;3.732;2023-05-19T03:11:03;11.60;99.90
21019;DHT22;10667;51.056;3.732;2023-05-19T03:13:28;11.60;99.90
21019;DHT22;10667;51.056;3.732;2023-05-19T03:15:54;11.50;99.90
21019;DHT22;10667;51.056;3.732;2023-05-19T03:18:22;11.60;99.90
21019;DHT22;10667;51.056;3.732;2023-05-19T03:20:49;11.50;99.90
21019;DHT22;10667;51.056;3.732;2023-05-19T03:23:15;11.60;99.90
21019;DHT22;10667;51.056;3.732;2023-05-19T03:25:40;11.60;99.90
21019;DHT22;10667;51.056;3.732;2023-05-19T03:28:06;11.50;99.90
21019;DHT22;10667;51.056;3.732;2023-05-19T03:30:32;11.60;99.90
21019;DHT22;10667;51.056;3.732;2023-05-19T03:32:57;11.60;99.90
21019;DHT22;10667;51.056;3.732;2023-05-19T03:35:26;11.60;99.90
21019;DHT22;10667;51.056;3.732;2023-05-19T03:37:51;11.60;99.90
21019;DHT22;10667;51.056;3.732;2023-05-19T03:40:17;11.70;99.90
21019;DHT22;10667;51.056;3.732;2023-05-19T03:42:43;11.70;99.90
21019;DHT22;10667;51.056;3.732;2023-05-19T03:45:09;11.60;99.90
21019;DHT22;10667;51.056;3.732;2023-05-19T03:47:35;11.60;99.90
21019;DHT22;10667;51.056;3.732;2023-05-19T03:50:00;11.60;99.90
21019;DHT22;10667;51.056;3.732;2023-05-19T03:52:26;11.70;99.90
21019;DHT22;10667;51.056;3.732;2023-05-19T03:54:52;11.70;99.90
21019;DHT22;10667;51.056;3.732;2023-05-19T03:57:18;11.70;99.90
21019;DHT22;10667;51.056;3.732;2023-05-19T03:59:43;11.70;99.90
21019;DHT22;10667;51.056;3.732;2023-05-19T04:02:09;11.70;99.90
21019;DHT22;10667;51.056;3.732;2023-05-19T04:04:35;11.70;99.90
21019;DHT22;10667;51.056;3.732;2023-05-19T04:07:02;11.70;99.90
21019;DHT22;10667;51.056;3.732;2023-05-19T04:09:28;11.70;99.90
21019;DHT22;10667;51.056;3.732;2023-05-19T04:11:56;11.80;99.90
21019;DHT22;10667;51.056;3.732;2023-05-19T04:14:21;11.90;99.90
21019;DHT22;10667;51.056;3.732;2023-05-19T04:16:48;11.90;99.90
21019;DHT22;10667;51.056;3.732;2023-05-19T04:19:13;11.80;99.90
21019;DHT22;10667;51.056;3.732;2023-05-19T04:21:39;11.80;99.90
21019;DHT22;10667;51.056;3.732;2023-05-19T04:24:05;11.70;99.90
21019;DHT22;10667;51.056;3.732;2023-05-19T04:26:31;11.70;99.90
21019;DHT22;10667;51.056;3.732;2023-05-19T04:28:58;11.90;99.90
21019;DHT22;10667;51.056;3.732;2023-05-19T04:31:25;11.80;99.90
21019;DHT22;10667;51.056;3.732;2023-05-19T04:33:51;11.90;99.90
21019;DHT22;10667;51.056;3.732;2023-05-19T04:36:17;12.00;99.90
21019;DHT22;10667;51.056;3.732;2023-05-19T04:38:46;11.90;99.90
21019;DHT22;10667;51.056;3.732;2023-05-19T04:41:12;11.90;99.90
21019;DHT22;10667;51.056;3.732;2023-05-19T04:43:38;11.90;99.90
21019;DHT22;10667;51.056;3.732;2023-05-19T04:46:06;11.80;99.90
21019;DHT22;10667;51.056;3.732;2023-05-19T04:48:32;11.80;99.90
21019;DHT22;10667;51.056;3.732;2023-05-19T04:50:58;11.80;99.90
21019;DHT22;10667;51.056;3.732;2023-05-19T04:53:29;11.80;99.90
21019;DHT22;10667;51.056;3.732;2023-05-19T04:55:56;11.90;99.90
21019;DHT22;10667;51.056;3.732;2023-05-19T04:58:22;11.90;99.90
21019;DHT22;10667;51.056;3.732;2023-05-19T05:00:51;11.90;99.90
21019;DHT22;10667;51.056;3.732;2023-05-19T05:03:17;12.00;99.90
21019;DHT22;10667;51.056;3.732;2023-05-19T05:05:43;12.10;99.90
21019;DHT22;10667;51.056;3.732;2023-05-19T05:08:10;12.10;99.90
21019;DHT22;10667;51.056;3.732;2023-05-19T05:10:36;12.10;99.90
21019;DHT22;10667;51.056;3.732;2023-05-19T05:13:02;12.20;99.90
21019;DHT22;10667;51.056;3.732;2023-05-19T05:15:27;12.20;99.90
21019;DHT22;10667;51.056;3.732;2023-05-19T05:17:54;12.20;99.90
21019;DHT22;10667;51.056;3.732;2023-05-19T05:20:20;12.20;99.90
21019;DHT22;10667;51.056;3.732;2023-05-19T05:22:46;12.20;99.90
21019;DHT22;10667;51.056;3.732;2023-05-19T05:25:13;12.20;99.90
21019;DHT22;10667;51.056;3.732;2023-05-19T05:27:39;12.20;99.90
21019;DHT22;10667;51.056;3.732;2023-05-19T05:30:05;12.20;99.90
21019;DHT22;10667;51.056;3.732;2023-05-19T05:32:31;12.20;99.90
21019;DHT22;10667;51.056;3.732;2023-05-19T05:34:57;12.20;99.90
21019;DHT22;10667;51.056;3.732;2023-05-19T05:37:22;12.20;99.90
21019;DHT22;10667;51.056;3.732;2023-05-19T05:39:48;12.20;99.90
21019;DHT22;10667;51.056;3.732;2023-05-19T05:42:13;12.30;99.90
21019;DHT22;10667;51.056;3.732;2023-05-19T05:44:40;12.20;99.90
21019;DHT22;10667;51.056;3.732;2023-05-19T05:47:06;12.20;99.90
21019;DHT22;10667;51.056;3.732;2023-05-19T05:49:33;12.20;99.90
21019;DHT22;10667;51.056;3.732;2023-05-19T05:52:03;12.20;99.90
21019;DHT22;10667;51.056;3.732;2023-05-19T05:54:29;12.20;99.90
21019;DHT22;10667;51.056;3.732;2023-05-19T05:56:55;12.20;99.90
21019;DHT22;10667;51.056;3.732;2023-05-19T05:59:21;12.20;99.90
21019;DHT22;10667;51.056;3.732;2023-05-19T06:01:47;12.30;99.90
21019;DHT22;10667;51.056;3.732;2023-05-19T06:04:12;12.30;99.90
21019;DHT22;10667;51.056;3.732;2023-05-19T06:06:38;12.30;99.90
21019;DHT22;10667;51.056;3.732;2023-05-19T06:09:03;12.40;99.90
21019;DHT22;10667;51.056;3.732;2023-05-19T06:11:30;12.50;99.90
21019;DHT22;10667;51.056;3.732;2023-05-19T06:13:55;12.40;99.90
21019;DHT22;10667;51.056;3.732;2023-05-19T06:16:21;12.40;99.90
21019;DHT22;10667;51.056;3.732;2023-05-19T06:18:47;12.50;99.90
21019;DHT22;10667;51.056;3.732;2023-05-19T06:21:12;12.50;99.90
21019;DHT22;10667;51.056;3.732;2023-05-19T06:23:39;12.60;99.90
21019;DHT22;10667;51.056;3.732;2023-05-19T06:26:05;12.70;99.90
21019;DHT22;10667;51.056;3.732;2023-05-19T06:28:32;12.70;99.90
21019;DHT22;10667;51.056;3.732;2023-05-19T06:30:58;12.70;99.90
21019;DHT22;10667;51.056;3.732;2023-05-19T06:33:24;12.80;99.90
21019;DHT22;10667;51.056;3.732;2023-05-19T06:35:50;12.70;99.90
21019;DHT22;10667;51.056;3.732;2023-05-19T06:38:16;12.70;99.90
21019;DHT22;10667;51.056;3.732;2023-05-19T06:40:42;12.80;99.90
21019;DHT22;10667;51.056;3.732;2023-05-19T06:43:08;12.80;99.90
21019;DHT22;10667;51.056;3.732;2023-05-19T06:45:33;12.90;99.90
21019;DHT22;10667;51.056;3.732;2023-05-19T06:47:59;12.90;99.90
21019;DHT22;10667;51.056;3.732;2023-05-19T06:50:25;12.90;99.90
21019;DHT22;10667;51.056;3.732;2023-05-19T06:52:51;13.00;99.90
21019;DHT22;10667;51.056;3.732;2023-05-19T06:55:16;13.10;99.90
21019;DHT22;10667;51.056;3.732;2023-05-19T06:57:42;13.10;99.90
21019;DHT22;10667;51.056;3.732;2023-05-19T07:00:08;13.20;99.90
21019;DHT22;10667;51.056;3.732;2023-05-19T07:02:40;13.30;99.90
21019;DHT22;10667;51.056;3.732;2023-05-19T07:05:05;13.30;99.90
21019;DHT22;10667;51.056;3.732;2023-05-19T07:07:32;13.40;99.90
21019;DHT22;10667;51.056;3.732;2023-05-19T07:09:58;13.40;99.90
21019;DHT22;10667;51.056;3.732;2023-05-19T07:12:24;13.50;99.90
21019;DHT22;10667;51.056;3.732;2023-05-19T07:14:51;13.60;99.90
21019;DHT22;10667;51.056;3.732;2023-05-19T07:17:17;13.70;99.90
21019;DHT22;10667;51.056;3.732;2023-05-19T07:19:42;13.70;99.90
21019;DHT22;10667;51.056;3.732;2023-05-19T07:22:08;13.70;99.90
21019;DHT22;10667;51.056;3.732;2023-05-19T07:24:34;13.80;99.90
21019;DHT22;10667;51.056;3.732;2023-05-19T07:26:59;13.90;99.90
21019;DHT22;10667;51.056;3.732;2023-05-19T07:29:25;14.00;99.90
21019;DHT22;10667;51.056;3.732;2023-05-19T07:31:51;14.10;99.90
21019;DHT22;10667;51.056;3.732;2023-05-19T07:34:19;14.20;99.90
21019;DHT22;10667;51.056;3.732;2023-05-19T07:36:46;14.30;99.90
21019;DHT22;10667;51.056;3.732;2023-05-19T07:39:12;14.40;99.90
21019;DHT22;10667;51.056;3.732;2023-05-19T07:41:38;14.50;99.90
21019;DHT22;10667;51.056;3.732;2023-05-19T07:44:04;14.60;99.90
21019;DHT22;10667;51.056;3.732;2023-05-19T07:46:33;14.70;99.90
21019;DHT22;10667;51.056;3.732;2023-05-19T07:48:59;14.80;99.90
21019;DHT22;10667;51.056;3.732;2023-05-19T07:51:25;14.90;99.90
21019;DHT22;10667;51.056;3.732;2023-05-19T07:53:50;15.00;99.90
21019;DHT22;10667;51.056;3.732;2023-05-19T07:56:17;14.90;99.90
21019;DHT22;10667;51.056;3.732;2023-05-19T07:58:43;15.10;99.90
21019;DHT22;10667;51.056;3.732;2023-05-19T08:01:08;15.10;99.90
21019;DHT22;10667;51.056;3.732;2023-05-19T08:03:34;15.20;99.90
21019;DHT22;10667;51.056;3.732;2023-05-19T08:06:00;15.40;99.90
21019;DHT22;10667;51.056;3.732;2023-05-19T08:08:26;15.50;99.90
21019;DHT22;10667;51.056;3.732;2023-05-19T08:10:51;15.50;99.90
21019;DHT22;10667;51.056;3.732;2023-05-19T08:13:17;15.60;99.90
21019;DHT22;10667;51.056;3.732;2023-05-19T08:15:43;15.60;99.90
21019;DHT22;10667;51.056;3.732;2023-05-19T08:18:09;15.70;99.90
21019;DHT22;10667;51.056;3.732;2023-05-19T08:20:34;15.90;99.90
21019;DHT22;10667;51.056;3.732;2023-05-19T08:23:01;16.10;99.90
21019;DHT22;10667;51.056;3.732;2023-05-19T08:25:26;16.20;99.90
21019;DHT22;10667;51.056;3.732;2023-05-19T08:27:52;16.30;99.90
21019;DHT22;10667;51.056;3.732;2023-05-19T08:30:18;16.30;99.90
21019;DHT22;10667;51.056;3.732;2023-05-19T08:32:43;16.40;99.90
21019;DHT22;10667;51.056;3.732;2023-05-19T08:35:09;16.40;99.90
21019;DHT22;10667;51.056;3.732;2023-05-19T08:37:35;16.50;99.90
21019;DHT22;10667;51.056;3.732;2023-05-19T08:40:03;16.70;99.90
21019;DHT22;10667;51.056;3.732;2023-05-19T08:42:29;16.70;99.90
21019;DHT22;10667;51.056;3.732;2023-05-19T08:44:57;16.70;99.90
21019;DHT22;10667;51.056;3.732;2023-05-19T08:47:24;16.90;99.90
21019;DHT22;10667;51.056;3.732;2023-05-19T08:49:52;16.90;99.90
21019;DHT22;10667;51.056;3.732;2023-05-19T08:52:30;17.00;99.90
21019;DHT22;10667;51.056;3.732;2023-05-19T08:57:32;17.30;99.90
21019;DHT22;10667;51.056;3.732;2023-05-19T08:59:58;17.30;99.90
21019;DHT22;10667;51.056;3.732;2023-05-19T09:02:24;17.30;99.90
21019;DHT22;10667;51.056;3.732;2023-05-19T09:04:51;17.50;99.90
21019;DHT22;10667;51.056;3.732;2023-05-19T09:07:17;17.60;99.90
21019;DHT22;10667;51.056;3.732;2023-05-19T09:09:44;17.50;99.90
21019;DHT22;10667;51.056;3.732;2023-05-19T09:12:10;17.40;99.90
21019;DHT22;10667;51.056;3.732;2023-05-19T09:14:36;17.60;99.90
21019;DHT22;10667;51.056;3.732;2023-05-19T09:17:02;17.80;99.90
21019;DHT22;10667;51.056;3.732;2023-05-19T09:19:28;17.90;99.90
21019;DHT22;10667;51.056;3.732;2023-05-19T09:21:58;18.00;99.90
21019;DHT22;10667;51.056;3.732;2023-05-19T09:24:33;18.20;99.90
21019;DHT22;10667;51.056;3.732;2023-05-19T09:26:59;18.30;99.90
21019;DHT22;10667;51.056;3.732;2023-05-19T09:29:25;18.40;99.90
21019;DHT22;10667;51.056;3.732;2023-05-19T09:31:55;18.40;99.90
21019;DHT22;10667;51.056;3.732;2023-05-19T09:34:25;18.60;99.90
21019;DHT22;10667;51.056;3.732;2023-05-19T09:36:52;18.90;99.90
21019;DHT22;10667;51.056;3.732;2023-05-19T09:39:19;19.00;99.90
21019;DHT22;10667;51.056;3.732;2023-05-19T09:41:45;19.10;99.90
21019;DHT22;10667;51.056;3.732;2023-05-19T09:44:21;18.90;99.90
21019;DHT22;10667;51.056;3.732;2023-05-19T09:46:57;19.10;99.90
21019;DHT22;10667;51.056;3.732;2023-05-19T09:49:25;19.20;99.90
21019;DHT22;10667;51.056;3.732;2023-05-19T09:52:03;19.50;99.90
21019;DHT22;10667;51.056;3.732;2023-05-19T09:54:29;19.70;99.90
21019;DHT22;10667;51.056;3.732;2023-05-19T09:57:00;20.00;99.90
21019;DHT22;10667;51.056;3.732;2023-05-19T09:59:27;20.10;99.90
21019;DHT22;10667;51.056;3.732;2023-05-19T10:01:54;20.20;99.90
21019;DHT22;10667;51.056;3.732;2023-05-19T10:04:22;20.20;99.90
21019;DHT22;10667;51.056;3.732;2023-05-19T10:06:49;20.40;99.90
21019;DHT22;10667;51.056;3.732;2023-05-19T10:09:22;20.50;99.90
21019;DHT22;10667;51.056;3.732;2023-05-19T10:11:56;20.30;99.90
21019;DHT22;10667;51.056;3.732;2023-05-19T10:14:23;20.40;99.90
21019;DHT22;10667;51.056;3.732;2023-05-19T10:16:55;20.60;99.90
21019;DHT22;10667;51.056;3.732;2023-05-19T10:19:23;20.70;99.90
21019;DHT22;10667;51.056;3.732;2023-05-19T10:21:50;21.00;99.90
21019;DHT22;10667;51.056;3.732;2023-05-19T10:24:16;21.30;99.90
21019;DHT22;10667;51.056;3.732;2023-05-19T10:26:55;21.20;99.90
21019;DHT22;10667;51.056;3.732;2023-05-19T10:29:30;21.60;99.90
21019;DHT22;10667;51.056;3.732;2023-05-19T10:32:01;22.00;99.90
21019;DHT22;10667;51.056;3.732;2023-05-19T10:37:52;22.30;99.90
21019;DHT22;10667;51.056;3.732;2023-05-19T10:40:33;22.40;99.90
21019;DHT22;10667;51.056;3.732;2023-05-19T10:45:52;21.90;99.90
21019;DHT22;10667;51.056;3.732;2023-05-19T10:48:19;22.00;99.90
21019;DHT22;10667;51.056;3.732;2023-05-19T10:50:46;22.00;99.90
21019;DHT22;10667;51.056;3.732;2023-05-19T10:53:16;22.50;99.90
21019;DHT22;10667;51.056;3.732;2023-05-19T10:55:53;23.10;97.40
21019;DHT22;10667;51.056;3.732;2023-05-19T11:01:12;23.90;87.10
21019;DHT22;10667;51.056;3.732;2023-05-19T11:03:48;24.20;87.30
21019;DHT22;10667;51.056;3.732;2023-05-19T11:06:30;24.40;85.60
21019;DHT22;10667;51.056;3.732;2023-05-19T11:09:13;24.40;78.70
21019;DHT22;10667;51.056;3.732;2023-05-19T11:12:01;24.70;79.80
21019;DHT22;10667;51.056;3.732;2023-05-19T11:14:27;25.00;80.60
21019;DHT22;10667;51.056;3.732;2023-05-19T11:16:57;24.90;72.30
21019;DHT22;10667;51.056;3.732;2023-05-19T11:19:31;25.20;70.20
21019;DHT22;10667;51.056;3.732;2023-05-19T11:29:45;25.80;69.30
21019;DHT22;10667;51.056;3.732;2023-05-19T11:32:13;26.00;67.60
21019;DHT22;10667;51.056;3.732;2023-05-19T11:34:39;26.00;67.30
21019;DHT22;10667;51.056;3.732;2023-05-19T11:37:05;26.00;69.80
21019;DHT22;10667;51.056;3.732;2023-05-19T11:39:32;25.70;65.10
21019;DHT22;10667;51.056;3.732;2023-05-19T11:41:57;25.30;65.10
21019;DHT22;10667;51.056;3.732;2023-05-19T11:44:23;25.20;67.80
21019;DHT22;10667;51.056;3.732;2023-05-19T11:46:49;25.80;65.90
21019;DHT22;10667;51.056;3.732;2023-05-19T11:49:15;26.80;63.40
21019;DHT22;10667;51.056;3.732;2023-05-19T11:51:44;28.20;60.40
21019;DHT22;10667;51.056;3.732;2023-05-19T11:54:11;29.70;57.30
21019;DHT22;10667;51.056;3.732;2023-05-19T11:56:40;30.90;53.00
21019;DHT22;10667;51.056;3.732;2023-05-19T11:59:07;31.90;51.10
21019;DHT22;10667;51.056;3.732;2023-05-19T12:01:33;32.10;48.20
21019;DHT22;10667;51.056;3.732;2023-05-19T12:03:59;32.90;46.50
21019;DHT22;10667;51.056;3.732;2023-05-19T12:06:26;33.20;44.60
21019;DHT22;10667;51.056;3.732;2023-05-19T12:08:53;32.80;44.50
21019;DHT22;10667;51.056;3.732;2023-05-19T12:11:19;33.90;41.60
21019;DHT22;10667;51.056;3.732;2023-05-19T12:13:45;34.30;42.10
21019;DHT22;10667;51.056;3.732;2023-05-19T12:16:11;34.50;41.10
21019;DHT22;10667;51.056;3.732;2023-05-19T12:18:36;34.80;40.80
21019;DHT22;10667;51.056;3.732;2023-05-19T12:21:03;35.70;37.70
21019;DHT22;10667;51.056;3.732;2023-05-19T12:23:29;36.20;37.10
21019;DHT22;10667;51.056;3.732;2023-05-19T12:25:57;35.90;36.50
21019;DHT22;10667;51.056;3.732;2023-05-19T12:28:23;36.00;35.20
21019;DHT22;10667;51.056;3.732;2023-05-19T12:30:52;35.70;36.10
21019;DHT22;10667;51.056;3.732;2023-05-19T12:33:18;36.60;34.40
21019;DHT22;10667;51.056;3.732;2023-05-19T12:35:44;36.70;32.70
21019;DHT22;10667;51.056;3.732;2023-05-19T12:38:10;36.60;34.50
21019;DHT22;10667;51.056;3.732;2023-05-19T12:40:36;36.90;33.80
21019;DHT22;10667;51.056;3.732;2023-05-19T12:43:04;37.20;33.50
21019;DHT22;10667;51.056;3.732;2023-05-19T12:45:33;36.30;32.90
21019;DHT22;10667;51.056;3.732;2023-05-19T12:48:02;35.00;34.90
21019;DHT22;10667;51.056;3.732;2023-05-19T12:50:29;34.80;35.70
21019;DHT22;10667;51.056;3.732;2023-05-19T12:52:55;34.80;34.70
21019;DHT22;10667;51.056;3.732;2023-05-19T12:55:23;34.90;34.60
21019;DHT22;10667;51.056;3.732;2023-05-19T12:57:51;35.70;35.20
21019;DHT22;10667;51.056;3.732;2023-05-19T13:00:22;36.10;33.90
21019;DHT22;10667;51.056;3.732;2023-05-19T13:05:23;37.00;31.80
21019;DHT22;10667;51.056;3.732;2023-05-19T13:08:03;37.20;31.80
21019;DHT22;10667;51.056;3.732;2023-05-19T13:10:29;37.20;32.20
21019;DHT22;10667;51.056;3.732;2023-05-19T13:12:56;37.10;32.70
21019;DHT22;10667;51.056;3.732;2023-05-19T13:15:24;37.60;33.20
21019;DHT22;10667;51.056;3.732;2023-05-19T13:17:51;37.70;31.30
21019;DHT22;10667;51.056;3.732;2023-05-19T13:20:17;38.00;30.90
21019;DHT22;10667;51.056;3.732;2023-05-19T13:22:43;37.90;30.50
21019;DHT22;10667;51.056;3.732;2023-05-19T13:25:09;38.00;31.10
21019;DHT22;10667;51.056;3.732;2023-05-19T13:27:36;38.10;31.50
21019;DHT22;10667;51.056;3.732;2023-05-19T13:30:02;38.20;30.10
21019;DHT22;10667;51.056;3.732;2023-05-19T13:32:28;36.80;30.10
21019;DHT22;10667;51.056;3.732;2023-05-19T13:34:54;36.40;31.70
21019;DHT22;10667;51.056;3.732;2023-05-19T13:37:20;36.40;32.40
21019;DHT22;10667;51.056;3.732;2023-05-19T13:39:45;36.00;32.10
21019;DHT22;10667;51.056;3.732;2023-05-19T13:42:11;36.20;32.50
21019;DHT22;10667;51.056;3.732;2023-05-19T13:44:37;36.30;31.50
21019;DHT22;10667;51.056;3.732;2023-05-19T13:47:02;36.30;33.50
21019;DHT22;10667;51.056;3.732;2023-05-19T13:49:28;36.10;31.60
21019;DHT22;10667;51.056;3.732;2023-05-19T13:51:57;36.00;32.40
21019;DHT22;10667;51.056;3.732;2023-05-19T13:54:23;34.90;32.20
21019;DHT22;10667;51.056;3.732;2023-05-19T13:56:49;34.50;32.80
21019;DHT22;10667;51.056;3.732;2023-05-19T13:59:15;34.20;32.80
21019;DHT22;10667;51.056;3.732;2023-05-19T14:01:42;35.20;33.50
21019;DHT22;10667;51.056;3.732;2023-05-19T14:04:08;35.70;32.50
21019;DHT22;10667;51.056;3.732;2023-05-19T14:06:34;36.70;31.20
21019;DHT22;10667;51.056;3.732;2023-05-19T14:09:01;37.00;30.60
21019;DHT22;10667;51.056;3.732;2023-05-19T14:11:27;36.90;30.50
21019;DHT22;10667;51.056;3.732;2023-05-19T14:13:53;37.70;30.00
21019;DHT22;10667;51.056;3.732;2023-05-19T14:16:19;37.50;28.90
21019;DHT22;10667;51.056;3.732;2023-05-19T14:18:46;37.00;30.50
21019;DHT22;10667;51.056;3.732;2023-05-19T14:21:12;36.10;30.30
21019;DHT22;10667;51.056;3.732;2023-05-19T14:23:37;35.20;31.50
21019;DHT22;10667;51.056;3.732;2023-05-19T14:26:03;36.00;31.00
21019;DHT22;10667;51.056;3.732;2023-05-19T14:28:28;35.10;31.40
21019;DHT22;10667;51.056;3.732;2023-05-19T14:30:54;36.20;31.20
21019;DHT22;10667;51.056;3.732;2023-05-19T14:33:20;36.50;30.50
21019;DHT22;10667;51.056;3.732;2023-05-19T14:35:45;36.70;29.90
21019;DHT22;10667;51.056;3.732;2023-05-19T14:38:12;37.00;30.60
21019;DHT22;10667;51.056;3.732;2023-05-19T14:40:37;36.60;30.10
21019;DHT22;10667;51.056;3.732;2023-05-19T14:43:06;37.20;30.10
21019;DHT22;10667;51.056;3.732;2023-05-19T14:45:32;37.20;29.90
21019;DHT22;10667;51.056;3.732;2023-05-19T14:47:58;36.50;29.50
21019;DHT22;10667;51.056;3.732;2023-05-19T14:50:23;36.10;29.70
21019;DHT22;10667;51.056;3.732;2023-05-19T14:52:49;36.00;30.50
21019;DHT22;10667;51.056;3.732;2023-05-19T14:55:15;36.70;30.90
21019;DHT22;10667;51.056;3.732;2023-05-19T14:57:41;37.30;30.00
21019;DHT22;10667;51.056;3.732;2023-05-19T15:00:07;37.40;29.30
21019;DHT22;10667;51.056;3.732;2023-05-19T15:02:35;37.60;29.60
21019;DHT22;10667;51.056;3.732;2023-05-19T15:05:01;35.10;30.10
21019;DHT22;10667;51.056;3.732;2023-05-19T15:07:27;35.30;32.20
21019;DHT22;10667;51.056;3.732;2023-05-19T15:09:53;36.20;30.80
21019;DHT22;10667;51.056;3.732;2023-05-19T15:12:18;36.70;31.10
21019;DHT22;10667;51.056;3.732;2023-05-19T15:14:44;36.50;30.40
21019;DHT22;10667;51.056;3.732;2023-05-19T15:17:10;35.50;31.00
21019;DHT22;10667;51.056;3.732;2023-05-19T15:19:35;33.70;32.00
21019;DHT22;10667;51.056;3.732;2023-05-19T15:22:01;33.70;33.40
21019;DHT22;10667;51.056;3.732;2023-05-19T15:24:27;32.80;33.60
21019;DHT22;10667;51.056;3.732;2023-05-19T15:26:53;32.60;34.80
21019;DHT22;10667;51.056;3.732;2023-05-19T15:29:19;33.00;34.90
21019;DHT22;10667;51.056;3.732;2023-05-19T15:31:48;33.30;32.90
21019;DHT22;10667;51.056;3.732;2023-05-19T15:34:13;33.60;33.20
21019;DHT22;10667;51.056;3.732;2023-05-19T15:36:39;33.30;32.20
21019;DHT22;10667;51.056;3.732;2023-05-19T15:39:05;33.80;33.50
21019;DHT22;10667;51.056;3.732;2023-05-19T15:41:30;33.30;32.30
21019;DHT22;10667;51.056;3.732;2023-05-19T15:43:56;31.20;33.40
21019;DHT22;10667;51.056;3.732;2023-05-19T15:46:24;31.60;35.60
21019;DHT22;10667;51.056;3.732;2023-05-19T15:48:50;31.70;33.10
21019;DHT22;10667;51.056;3.732;2023-05-19T15:51:16;31.40;35.40
21019;DHT22;10667;51.056;3.732;2023-05-19T15:53:42;33.00;34.20
21019;DHT22;10667;51.056;3.732;2023-05-19T15:56:07;33.80;32.20
21019;DHT22;10667;51.056;3.732;2023-05-19T15:58:33;33.70;30.90
21019;DHT22;10667;51.056;3.732;2023-05-19T16:00:59;33.80;31.00
21019;DHT22;10667;51.056;3.732;2023-05-19T16:03:24;31.40;32.20